createdAt,value
2023-12-11T00:00:33.471Z,59.20
2023-12-11T00:03:00.338Z,59.20
2023-12-11T00:05:28.496Z,59.50
2023-12-11T00:07:55.386Z,59.50
2023-12-11T00:10:22.240Z,60.10
2023-12-11T00:12:49.099Z,59.90
2023-12-11T00:15:15.830Z,60.20
2023-12-11T00:17:42.785Z,60.30
2023-12-11T00:20:10.915Z,60.30
2023-12-11T00:22:38.984Z,60.40
2023-12-11T00:25:06.877Z,60.50
2023-12-11T00:27:34.106Z,60.30
2023-12-11T00:30:01.158Z,60.60
2023-12-11T00:32:27.852Z,60.90
2023-12-11T00:34:54.782Z,60.80
2023-12-11T00:37:21.670Z,60.70
2023-12-11T00:39:49.944Z,61.10
2023-12-11T00:42:16.807Z,61.00
2023-12-11T00:44:43.561Z,61.20
2023-12-11T00:47:10.495Z,60.60
2023-12-11T00:49:37.419Z,61.00
2023-12-11T00:52:05.081Z,60.80
2023-12-11T00:54:31.854Z,60.90
2023-12-11T00:57:00.074Z,60.80
2023-12-11T00:59:26.784Z,61.10
2023-12-11T01:01:53.678Z,60.90
2023-12-11T01:04:20.680Z,61.10
2023-12-11T01:06:47.509Z,61.30
2023-12-11T01:09:14.366Z,61.30
2023-12-11T01:11:41.567Z,61.20
2023-12-11T01:14:09.690Z,61.50
2023-12-11T01:16:36.474Z,61.40
2023-12-11T01:19:03.432Z,61.10
2023-12-11T01:21:30.320Z,61.60
2023-12-11T01:23:58.195Z,61.70
2023-12-11T01:26:26.412Z,61.80
2023-12-11T01:28:53.121Z,62.00
2023-12-11T01:31:21.177Z,61.90
2023-12-11T01:33:48.225Z,62.10
2023-12-11T01:36:15.031Z,62.30
2023-12-11T01:38:41.878Z,62.20
2023-12-11T01:41:08.604Z,62.40
2023-12-11T01:43:35.405Z,62.00
2023-12-11T01:46:10.036Z,62.20
2023-12-11T01:48:38.673Z,61.80
2023-12-11T01:51:08.996Z,61.50
2023-12-11T01:53:35.917Z,61.90
2023-12-11T01:56:03.137Z,61.70
2023-12-11T01:58:31.216Z,61.60
2023-12-11T02:00:58.301Z,61.40
2023-12-11T02:03:25.556Z,61.50
2023-12-11T02:05:53.733Z,61.10
2023-12-11T02:08:20.541Z,61.20
2023-12-11T02:10:47.327Z,60.90
2023-12-11T02:13:15.279Z,60.80
2023-12-11T02:15:43.599Z,60.80
2023-12-11T02:18:12.938Z,60.90
2023-12-11T02:20:40.795Z,61.00
2023-12-11T02:23:15.575Z,60.90
2023-12-11T02:25:46.786Z,60.80
2023-12-11T02:28:15.164Z,60.80
2023-12-11T02:30:50.934Z,60.80
2023-12-11T02:33:18.137Z,61.10
2023-12-11T02:35:44.893Z,60.80
2023-12-11T02:38:11.686Z,61.20
2023-12-11T02:40:38.523Z,61.20
2023-12-11T02:43:05.438Z,61.00
2023-12-11T02:45:33.653Z,60.90
2023-12-11T02:48:00.486Z,61.30
2023-12-11T02:50:27.346Z,61.30
2023-12-11T02:52:54.131Z,61.20
2023-12-11T02:55:20.978Z,61.20
2023-12-11T02:57:47.796Z,61.30
2023-12-11T03:00:14.795Z,61.40
2023-12-11T03:02:43.104Z,61.50
2023-12-11T03:05:09.861Z,61.10
2023-12-11T03:07:38.744Z,61.20
2023-12-11T03:10:06.447Z,61.60
2023-12-11T03:12:33.421Z,61.20
2023-12-11T03:15:00.269Z,61.10
2023-12-11T03:17:27.233Z,60.80
2023-12-11T03:19:56.218Z,61.60
2023-12-11T03:22:23.218Z,60.80
2023-12-11T03:24:50.050Z,60.60
2023-12-11T03:27:17.332Z,60.60
2023-12-11T03:29:44.163Z,60.80
2023-12-11T03:32:10.900Z,60.90
2023-12-11T03:34:37.780Z,60.70
2023-12-11T03:37:06.090Z,60.50
2023-12-11T03:39:33.038Z,60.40
2023-12-11T03:41:59.938Z,60.20
2023-12-11T03:44:26.665Z,60.40
2023-12-11T03:46:53.537Z,60.40
2023-12-11T03:49:20.460Z,60.20
2023-12-11T03:51:47.829Z,60.10
2023-12-11T03:54:17.762Z,60.40
2023-12-11T03:56:44.629Z,60.30
2023-12-11T03:59:11.433Z,60.30
2023-12-11T04:01:38.426Z,59.90
2023-12-11T04:04:06.397Z,61.10
2023-12-11T04:06:34.408Z,60.20
2023-12-11T04:09:01.215Z,60.30
2023-12-11T04:11:29.386Z,60.40
2023-12-11T04:13:56.241Z,60.50
2023-12-11T04:16:23.299Z,60.40
2023-12-11T04:18:52.405Z,60.20
2023-12-11T04:21:19.320Z,60.10
2023-12-11T04:23:46.515Z,60.10
2023-12-11T04:26:14.292Z,60.10
2023-12-11T04:28:42.468Z,59.90
2023-12-11T04:31:09.389Z,60.30
2023-12-11T04:33:36.430Z,59.90
2023-12-11T04:36:05.205Z,59.70
2023-12-11T04:38:31.976Z,59.70
2023-12-11T04:40:58.669Z,59.50
2023-12-11T04:43:27.049Z,59.50
2023-12-11T04:45:56.398Z,59.60
2023-12-11T04:48:23.526Z,59.80
2023-12-11T04:50:50.239Z,60.40
2023-12-11T04:53:17.036Z,59.90
2023-12-11T04:55:44.047Z,59.70
2023-12-11T04:58:10.974Z,59.90
2023-12-11T05:00:37.881Z,59.70
2023-12-11T05:03:06.105Z,59.60
2023-12-11T05:05:33.038Z,59.60
2023-12-11T05:07:59.883Z,59.70
2023-12-11T05:10:26.619Z,59.30
2023-12-11T05:12:53.424Z,59.40
2023-12-11T05:15:20.177Z,59.20
2023-12-11T05:17:46.986Z,59.30
2023-12-11T05:20:15.427Z,59.30
2023-12-11T05:22:42.390Z,59.30
2023-12-11T05:25:09.611Z,59.10
2023-12-11T05:27:36.552Z,59.00
2023-12-11T05:30:03.815Z,59.00
2023-12-11T05:32:30.604Z,58.90
2023-12-11T05:34:57.397Z,58.80
2023-12-11T05:37:25.540Z,58.80
2023-12-11T05:39:58.101Z,58.80
2023-12-11T05:42:39.247Z,58.90
2023-12-11T05:45:07.131Z,58.80
2023-12-11T05:47:34.158Z,58.80
2023-12-11T05:50:01.141Z,58.70
2023-12-11T05:52:29.251Z,58.70
2023-12-11T05:54:56.023Z,58.60
2023-12-11T05:57:22.750Z,58.50
2023-12-11T05:59:49.483Z,58.70
2023-12-11T06:02:16.298Z,58.60
2023-12-11T06:04:44.378Z,58.50
2023-12-11T06:07:12.567Z,58.50
2023-12-11T06:09:40.936Z,58.60
2023-12-11T06:12:08.880Z,58.50
2023-12-11T06:14:35.608Z,58.40
2023-12-11T06:17:02.297Z,58.30
2023-12-11T06:19:29.077Z,58.40
2023-12-11T06:21:55.885Z,58.50
2023-12-11T06:24:22.623Z,58.50
2023-12-11T06:26:50.666Z,58.50
2023-12-11T06:29:17.406Z,58.50
2023-12-11T06:31:44.148Z,58.60
2023-12-11T06:34:11.087Z,58.70
2023-12-11T06:36:37.953Z,58.50
2023-12-11T06:39:04.675Z,58.50
2023-12-11T06:41:31.559Z,58.60
2023-12-11T06:43:59.737Z,58.70
2023-12-11T06:46:26.556Z,58.80
2023-12-11T06:48:53.470Z,58.70
2023-12-11T06:51:20.382Z,58.80
2023-12-11T06:53:47.125Z,58.80
2023-12-11T06:56:17.872Z,58.80
2023-12-11T06:58:44.625Z,58.80
2023-12-11T07:01:13.320Z,58.80
2023-12-11T07:03:40.408Z,58.80
2023-12-11T07:06:07.939Z,58.70
2023-12-11T07:08:35.791Z,58.80
2023-12-11T07:11:02.612Z,58.70
2023-12-11T07:13:31.047Z,58.80
2023-12-11T07:16:00.760Z,58.80
2023-12-11T07:18:28.921Z,58.80
2023-12-11T07:20:55.798Z,58.70
2023-12-11T07:23:27.505Z,58.80
2023-12-11T07:25:54.590Z,58.90
2023-12-11T07:28:24.291Z,59.10
2023-12-11T07:30:51.103Z,59.00
2023-12-11T07:33:17.910Z,59.00
2023-12-11T07:35:46.098Z,59.00
2023-12-11T07:38:13.175Z,59.10
2023-12-11T07:40:39.924Z,59.20
2023-12-11T07:43:06.669Z,59.30
2023-12-11T07:46:08.806Z,59.30
2023-12-11T07:52:04.290Z,59.50
2023-12-11T07:57:34.250Z,59.90
2023-12-11T08:00:05.764Z,59.70
2023-12-11T08:02:45.781Z,59.90
2023-12-11T08:08:30.170Z,59.90
2023-12-11T08:11:20.721Z,60.20
2023-12-11T08:13:56.232Z,60.20
2023-12-11T08:16:26.086Z,61.00
2023-12-11T08:18:53.277Z,60.10
2023-12-11T08:21:22.701Z,60.00
2023-12-11T08:23:50.980Z,60.00
2023-12-11T08:26:20.621Z,60.00
2023-12-11T08:28:48.529Z,60.00
2023-12-11T08:31:18.516Z,60.00
2023-12-11T08:33:45.760Z,60.90
2023-12-11T08:36:15.291Z,60.90
2023-12-11T08:38:42.230Z,59.70
2023-12-11T08:41:10.617Z,59.90
2023-12-11T08:43:37.479Z,60.20
2023-12-11T08:46:04.792Z,60.70
2023-12-11T08:48:31.870Z,60.10
2023-12-11T08:50:58.758Z,60.10
2023-12-11T08:53:28.087Z,60.20
2023-12-11T08:55:57.264Z,60.30
2023-12-11T08:58:28.102Z,60.30
2023-12-11T09:00:55.180Z,60.30
2023-12-11T09:03:22.238Z,60.60
2023-12-11T09:05:52.899Z,60.70
2023-12-11T09:08:21.172Z,60.60
2023-12-11T09:10:48.141Z,60.80
2023-12-11T09:13:14.981Z,60.90
2023-12-11T09:15:43.440Z,61.00
2023-12-11T09:18:15.684Z,60.80
2023-12-11T09:20:42.925Z,60.80
2023-12-11T09:23:09.798Z,60.60
2023-12-11T09:25:37.038Z,60.60
2023-12-11T09:28:04.518Z,61.10
2023-12-11T09:30:31.593Z,60.70
2023-12-11T09:33:03.362Z,61.00
2023-12-11T09:35:30.537Z,60.80
2023-12-11T09:37:57.519Z,61.40
2023-12-11T09:40:24.383Z,60.80
2023-12-11T09:42:52.384Z,60.40
2023-12-11T09:45:20.737Z,60.60
2023-12-11T09:48:00.152Z,60.50
2023-12-11T09:50:38.230Z,60.70
2023-12-11T09:53:05.032Z,60.80
2023-12-11T09:55:31.827Z,60.60
2023-12-11T09:58:27.754Z,60.70
2023-12-11T10:00:57.763Z,60.80
2023-12-11T10:03:48.219Z,61.00
2023-12-11T10:16:53.722Z,60.30
2023-12-11T10:19:57.677Z,61.00
2023-12-11T10:22:53.151Z,60.70
2023-12-11T10:28:29.186Z,60.70
2023-12-11T10:31:25.476Z,61.30
2023-12-11T10:34:07.441Z,60.60
2023-12-11T10:37:00.539Z,60.80
2023-12-11T10:40:03.072Z,60.50
2023-12-11T10:45:48.977Z,60.80
2023-12-11T10:48:34.179Z,60.70
2023-12-11T10:51:08.243Z,60.70
2023-12-11T10:53:40.111Z,60.80
2023-12-11T10:56:18.688Z,61.00
2023-12-11T10:58:48.309Z,61.10
2023-12-11T11:01:16.268Z,60.90
2023-12-11T11:03:52.311Z,60.90
2023-12-11T11:09:42.201Z,60.90
2023-12-11T11:15:32.584Z,60.80
2023-12-11T11:20:41.238Z,60.60
2023-12-11T11:23:24.688Z,60.30
2023-12-11T11:25:51.911Z,60.30
2023-12-11T11:28:37.497Z,60.50
2023-12-11T11:31:15.243Z,60.00
2023-12-11T11:33:48.303Z,60.20
2023-12-11T11:36:18.017Z,60.30
2023-12-11T11:38:58.216Z,60.10
2023-12-11T11:41:29.546Z,60.00
2023-12-11T11:44:06.811Z,60.00
2023-12-11T11:46:53.656Z,60.30
2023-12-11T11:49:28.620Z,60.10
2023-12-11T11:51:55.957Z,60.20
2023-12-11T11:54:23.881Z,60.10
2023-12-11T11:56:50.668Z,60.20
2023-12-11T11:59:17.616Z,60.40
2023-12-11T12:01:53.252Z,60.10
2023-12-11T12:04:30.839Z,59.90
2023-12-11T12:06:59.190Z,60.20
2023-12-11T12:09:26.236Z,60.00
2023-12-11T12:11:54.727Z,60.10
2023-12-11T12:14:25.202Z,60.20
2023-12-11T12:16:55.735Z,60.30
2023-12-11T12:19:30.628Z,60.20
2023-12-11T12:22:02.387Z,59.70
2023-12-11T12:24:32.403Z,60.20
2023-12-11T12:27:08.248Z,59.80
2023-12-11T12:29:35.905Z,60.00
2023-12-11T12:32:08.425Z,59.90
2023-12-11T12:34:40.280Z,59.80
2023-12-11T12:37:07.922Z,60.00
2023-12-11T12:39:35.257Z,60.00
2023-12-11T12:42:02.118Z,59.90
2023-12-11T12:44:28.928Z,59.80
2023-12-11T12:47:00.905Z,59.80
2023-12-11T12:49:32.141Z,60.00
2023-12-11T12:51:58.980Z,60.00
2023-12-11T12:54:26.182Z,60.20
2023-12-11T12:57:01.971Z,59.80
2023-12-11T12:59:29.185Z,60.00
2023-12-11T13:01:56.015Z,60.00
2023-12-11T13:04:24.027Z,59.90
2023-12-11T13:06:52.409Z,59.80
2023-12-11T13:09:29.418Z,60.10
2023-12-11T13:11:56.504Z,59.90
2023-12-11T13:14:23.260Z,59.80
2023-12-11T13:16:50.004Z,60.00
2023-12-11T13:19:16.907Z,60.00
2023-12-11T13:21:43.856Z,59.60
2023-12-11T13:24:12.023Z,60.00
2023-12-11T13:26:39.160Z,60.00
2023-12-11T13:29:05.914Z,59.90
2023-12-11T13:31:32.796Z,60.20
2023-12-11T13:33:59.631Z,59.90
2023-12-11T13:36:26.463Z,60.20
2023-12-11T13:38:53.178Z,60.50
2023-12-11T13:41:21.309Z,60.40
2023-12-11T13:43:48.078Z,60.60
2023-12-11T13:46:14.888Z,60.90
2023-12-11T13:48:41.797Z,61.10
2023-12-11T13:51:08.632Z,61.20
2023-12-11T13:53:37.590Z,61.60
2023-12-11T13:56:08.458Z,61.50
2023-12-11T13:58:36.626Z,62.00
2023-12-11T14:01:04.682Z,61.80
2023-12-11T14:03:31.642Z,62.20
2023-12-11T14:05:58.494Z,62.50
2023-12-11T14:08:25.268Z,62.70
2023-12-11T14:10:53.920Z,62.90
2023-12-11T14:13:20.778Z,63.00
2023-12-11T14:16:00.743Z,63.40
2023-12-11T14:18:41.207Z,63.80
2023-12-11T14:24:21.401Z,64.30
2023-12-11T14:29:29.406Z,64.40
2023-12-11T14:32:05.254Z,64.30
2023-12-11T14:34:51.002Z,63.80
2023-12-11T14:37:23.632Z,64.20
2023-12-11T14:40:20.858Z,63.90
2023-12-11T14:42:50.012Z,64.00
2023-12-11T14:45:34.220Z,64.10
2023-12-11T14:48:17.635Z,64.00
2023-12-11T14:50:50.910Z,64.40
2023-12-11T14:53:21.004Z,64.10
2023-12-11T14:55:50.523Z,64.00
2023-12-11T14:58:18.876Z,64.10
2023-12-11T15:00:50.648Z,64.30
2023-12-11T15:03:20.262Z,64.50
2023-12-11T15:05:50.197Z,64.90
2023-12-11T15:08:17.292Z,64.70
2023-12-11T15:10:46.329Z,64.60
2023-12-11T15:13:16.468Z,64.70
2023-12-11T15:15:43.755Z,64.40
2023-12-11T15:18:10.580Z,64.80
2023-12-11T15:20:38.952Z,64.80
2023-12-11T15:23:05.799Z,64.60
2023-12-11T15:25:32.967Z,65.00
2023-12-11T15:27:59.870Z,64.90
2023-12-11T15:30:26.557Z,65.20
2023-12-11T15:32:53.397Z,65.20
2023-12-11T15:35:20.299Z,64.90
2023-12-11T15:37:53.542Z,65.10
2023-12-11T15:40:20.415Z,65.20
2023-12-11T15:42:47.163Z,65.20
2023-12-11T15:45:13.945Z,64.90
2023-12-11T15:48:00.297Z,65.00
2023-12-11T15:50:28.014Z,65.30
2023-12-11T15:52:56.146Z,65.00
2023-12-11T15:55:23.041Z,65.20
2023-12-11T15:57:49.902Z,65.20
2023-12-11T16:00:17.178Z,65.30
2023-12-11T16:02:43.913Z,65.10
2023-12-11T16:05:10.753Z,65.50
2023-12-11T16:07:37.813Z,65.50
2023-12-11T16:10:07.252Z,65.50
2023-12-11T16:12:34.069Z,65.60
2023-12-11T16:15:00.905Z,65.80
2023-12-11T16:17:27.713Z,65.90
2023-12-11T16:19:54.839Z,65.90
2023-12-11T16:22:22.746Z,65.90
2023-12-11T16:24:49.653Z,65.90
2023-12-11T16:27:17.795Z,65.70
2023-12-11T16:29:44.480Z,65.50
2023-12-11T16:32:11.226Z,65.50
2023-12-11T16:34:38.104Z,65.30
2023-12-11T16:37:05.548Z,65.00
2023-12-11T16:39:32.271Z,65.10
2023-12-11T16:41:59.032Z,65.20
2023-12-11T16:44:27.182Z,64.90
2023-12-11T16:46:53.892Z,65.00
2023-12-11T16:49:20.643Z,64.80
2023-12-11T16:51:47.440Z,64.70
2023-12-11T16:54:14.247Z,64.60
2023-12-11T16:56:41.002Z,65.30
2023-12-11T16:59:07.918Z,64.50
2023-12-11T17:01:36.051Z,64.60
2023-12-11T17:04:02.887Z,64.60
2023-12-11T17:06:31.090Z,64.60
2023-12-11T17:08:58.947Z,64.40
2023-12-11T17:11:25.655Z,64.30
2023-12-11T17:13:52.374Z,64.10
2023-12-11T17:16:19.152Z,64.20
2023-12-11T17:18:47.451Z,63.50
2023-12-11T17:21:22.183Z,63.30
2023-12-11T17:23:52.590Z,63.30
2023-12-11T17:26:19.483Z,63.10
2023-12-11T17:28:46.157Z,62.80
2023-12-11T17:31:12.937Z,62.50
2023-12-11T17:33:39.731Z,62.40
2023-12-11T17:36:08.998Z,62.30
2023-12-11T17:38:36.088Z,62.50
2023-12-11T17:41:02.906Z,62.50
2023-12-11T17:43:29.678Z,62.20
2023-12-11T17:45:56.452Z,62.10
2023-12-11T17:48:23.229Z,61.90
2023-12-11T17:50:49.960Z,61.90
2023-12-11T17:53:19.224Z,61.50
2023-12-11T17:55:45.917Z,61.00
2023-12-11T17:58:12.734Z,60.90
2023-12-11T18:00:39.669Z,60.90
2023-12-11T18:03:06.456Z,61.00
2023-12-11T18:05:33.161Z,61.00
2023-12-11T18:07:59.855Z,60.80
2023-12-11T18:10:28.164Z,60.20
2023-12-11T18:12:54.867Z,60.10
2023-12-11T18:15:21.877Z,60.00
2023-12-11T18:17:52.429Z,60.10
2023-12-11T18:20:23.761Z,60.40
2023-12-11T18:22:50.458Z,60.30
2023-12-11T18:25:17.324Z,60.00
2023-12-11T18:27:45.514Z,60.00
2023-12-11T18:30:13.279Z,60.10
2023-12-11T18:32:40.098Z,59.90
2023-12-11T18:35:07.228Z,59.80
2023-12-11T18:37:34.262Z,59.90
2023-12-11T18:40:01.534Z,59.90
2023-12-11T18:42:28.315Z,60.10
2023-12-11T18:44:58.652Z,60.10
2023-12-11T18:47:25.375Z,60.10
2023-12-11T18:49:52.187Z,60.00
2023-12-11T18:52:19.003Z,60.00
2023-12-11T18:54:45.823Z,60.20
2023-12-11T18:57:15.726Z,60.30
2023-12-11T18:59:42.512Z,60.40
2023-12-11T19:02:10.750Z,60.10
2023-12-11T19:04:37.746Z,60.20
2023-12-11T19:07:04.912Z,60.40
2023-12-11T19:09:31.664Z,60.30
2023-12-11T19:11:58.578Z,60.50
2023-12-11T19:14:25.292Z,60.10
2023-12-11T19:16:51.995Z,60.20
2023-12-11T19:19:25.958Z,59.70
2023-12-11T19:21:52.977Z,59.80
2023-12-11T19:24:19.737Z,59.90
2023-12-11T19:26:46.669Z,59.90
2023-12-11T19:29:13.482Z,60.30
2023-12-11T19:31:45.041Z,60.40
2023-12-11T19:34:12.195Z,60.20
2023-12-11T19:36:41.515Z,60.40
2023-12-11T19:39:08.269Z,60.40
2023-12-11T19:41:35.062Z,60.10
2023-12-11T19:44:01.839Z,60.30
2023-12-11T19:46:28.772Z,60.30
2023-12-11T19:48:55.789Z,60.60
2023-12-11T19:51:22.713Z,60.70
2023-12-11T19:53:50.781Z,60.80
2023-12-11T19:56:21.272Z,60.60
2023-12-11T19:58:48.158Z,60.70
2023-12-11T20:01:15.346Z,60.50
2023-12-11T20:03:43.100Z,60.50
2023-12-11T20:06:10.040Z,60.40
2023-12-11T20:08:36.872Z,60.30
2023-12-11T20:11:05.437Z,60.30
2023-12-11T20:13:32.302Z,60.40
2023-12-11T20:15:59.033Z,60.30
2023-12-11T20:18:25.925Z,60.10
2023-12-11T20:20:52.686Z,60.10
2023-12-11T20:23:19.378Z,60.00
2023-12-11T20:25:46.238Z,60.10
2023-12-11T20:28:14.425Z,60.00
2023-12-11T20:30:41.256Z,59.70
2023-12-11T20:33:08.052Z,59.90
2023-12-11T20:35:34.930Z,59.50
2023-12-11T20:38:01.752Z,59.70
2023-12-11T20:40:28.756Z,59.70
2023-12-11T20:42:55.542Z,59.50
2023-12-11T20:45:23.718Z,59.60
2023-12-11T20:47:50.568Z,59.50
2023-12-11T20:50:17.322Z,59.50
2023-12-11T20:52:44.061Z,59.50
2023-12-11T20:55:10.997Z,59.50
2023-12-11T20:57:37.789Z,59.40
2023-12-11T21:00:08.366Z,59.50
2023-12-11T21:02:36.458Z,59.50
2023-12-11T21:05:03.470Z,59.60
2023-12-11T21:07:30.514Z,59.60
2023-12-11T21:09:57.400Z,59.50
2023-12-11T21:12:24.129Z,59.40
2023-12-11T21:14:50.827Z,59.40
2023-12-11T21:17:17.655Z,58.90
2023-12-11T21:19:45.738Z,58.90
2023-12-11T21:22:12.497Z,58.60
2023-12-11T21:24:39.355Z,58.70
2023-12-11T21:27:06.109Z,58.80
2023-12-11T21:29:32.817Z,59.00
2023-12-11T21:31:59.564Z,59.00
2023-12-11T21:34:26.414Z,59.00
2023-12-11T21:36:54.507Z,59.00
2023-12-11T21:39:21.275Z,59.00
2023-12-11T21:41:48.098Z,58.90
2023-12-11T21:44:14.974Z,58.80
2023-12-11T21:46:41.793Z,59.00
2023-12-11T21:49:08.735Z,58.70
2023-12-11T21:51:35.615Z,58.70
2023-12-11T21:54:03.766Z,58.60
2023-12-11T21:56:30.435Z,58.60
2023-12-11T21:58:57.158Z,58.70
2023-12-11T22:01:23.988Z,58.80
2023-12-11T22:03:50.938Z,58.80
2023-12-11T22:06:17.694Z,58.90
2023-12-11T22:08:44.554Z,58.50
2023-12-11T22:11:15.091Z,58.60
2023-12-11T22:13:42.664Z,58.70
2023-12-11T22:16:10.086Z,58.70
2023-12-11T22:18:36.978Z,58.70
2023-12-11T22:21:03.809Z,58.80
2023-12-11T22:23:30.573Z,58.90
2023-12-11T22:25:57.781Z,58.30
2023-12-11T22:28:26.075Z,58.60
2023-12-11T22:30:52.783Z,58.80
2023-12-11T22:33:19.511Z,58.80
2023-12-11T22:35:46.198Z,58.80
2023-12-11T22:38:13.407Z,58.70
2023-12-11T22:40:40.239Z,58.70
2023-12-11T22:43:07.206Z,58.90
2023-12-11T22:45:35.505Z,58.70
2023-12-11T22:48:02.371Z,59.00
2023-12-11T22:50:31.521Z,58.90
2023-12-11T22:52:58.754Z,58.60
2023-12-11T22:55:25.470Z,58.90
2023-12-11T22:57:59.010Z,58.80
2023-12-11T23:00:32.861Z,58.80
2023-12-11T23:03:00.863Z,58.70
2023-12-11T23:05:27.706Z,59.10
2023-12-11T23:07:54.547Z,59.10
2023-12-11T23:10:23.084Z,59.20
2023-12-11T23:12:50.411Z,59.10
2023-12-11T23:15:17.356Z,58.90
2023-12-11T23:17:44.065Z,59.00
2023-12-11T23:20:12.963Z,59.00
2023-12-11T23:22:39.680Z,58.90
2023-12-11T23:25:07.339Z,59.10
2023-12-11T23:27:34.324Z,59.00
2023-12-11T23:30:07.135Z,59.10
2023-12-11T23:32:35.077Z,59.00
2023-12-11T23:35:02.041Z,59.10
2023-12-11T23:37:31.433Z,59.20
2023-12-11T23:39:58.500Z,59.20
2023-12-11T23:42:25.210Z,59.40
2023-12-11T23:44:51.992Z,59.60
2023-12-11T23:47:18.776Z,59.50
2023-12-11T23:49:45.869Z,59.60
2023-12-11T23:52:12.755Z,59.50
2023-12-11T23:54:40.787Z,59.60
2023-12-11T23:57:07.495Z,59.60
2023-12-11T23:59:34.307Z,59.50
